Time;durP1;ratioP1;P1;durP2;ratioP2;P2;SDS_P1;SDS_P2;PMS_P1;PMS_P2;Temp;Humidity;BMP_temperature;BMP_pressure;BME280_temperature;BME280_humidity;BME280_pressure;Samples;Min_cycle;Max_cycle;Signal;HPM_P1;HPM_P2
2022/10/13 00:03:35;;;;;;;6.43;2.83;;;;;;;;;;10533961;28;20527;-46
2022/10/13 00:08:36;;;;;;;8.32;2.97;;;;;;;;;;10534406;28;20028;-45
2022/10/13 00:13:36;;;;;;;4.57;2.80;;;;;;;;;;10534871;28;20027;-45
2022/10/13 00:18:36;;;;;;;5.70;3.20;;;;;;;;;;10534891;28;20383;-45
2022/10/13 00:23:37;;;;;;;8.80;3.40;;;;;;;;;;10534601;28;20024;-46
2022/10/13 00:28:38;;;;;;;5.53;3.45;;;;;;;;;;10534278;28;20497;-45
2022/10/13 00:33:39;;;;;;;4.72;2.78;;;;;;;;;;10533636;28;20101;-45
2022/10/13 00:38:39;;;;;;;6.18;3.20;;;;;;;;;;10533765;28;20024;-46
2022/10/13 00:43:52;;;;;;;4.82;2.78;;;;;;;;;;10533293;28;20055;-47
2022/10/13 00:48:53;;;;;;;7.03;3.10;;;;;;;;;;10532672;28;20031;-45
2022/10/13 00:53:55;;;;;;;4.10;2.67;;;;;;;;;;10533718;28;20035;-45
2022/10/13 00:58:55;;;;;;;5.30;2.78;;;;;;;;;;10532598;28;20410;-45
2022/10/13 01:03:56;;;;;;;6.38;3.20;;;;;;;;;;10532699;28;20032;-45
2022/10/13 01:08:56;;;;;;;6.80;2.90;;;;;;;;;;10532340;28;20032;-46
2022/10/13 01:14:05;;;;;;;4.50;2.72;;;;;;;;;;10532967;28;20111;-45
2022/10/13 01:19:05;;;;;;;7.50;2.60;;;;;;;;;;10532633;28;20031;-46
2022/10/13 01:24:06;;;;;;;2.90;2.30;;;;;;;;;;10532483;28;20024;-45
2022/10/13 01:29:12;;;;;;;4.07;2.80;;;;;;;;;;10532609;28;20109;-45
2022/10/13 01:34:22;;;;;;;4.80;2.63;;;;;;;;;;10532229;28;20058;-46
2022/10/13 01:39:26;;;;;;;7.05;2.67;;;;;;;;;;10532807;28;20115;-45
2022/10/13 01:44:34;;;;;;;4.75;2.50;;;;;;;;;;10532499;28;20032;-46
2022/10/13 01:49:35;;;;;;;4.80;2.57;;;;;;;;;;10532181;28;20040;-46
2022/10/13 01:54:35;;;;;;;6.63;2.72;;;;;;;;;;10531919;28;20485;-45
2022/10/13 01:59:37;;;;;;;3.42;2.58;;;;;;;;;;10537633;28;20020;-45
2022/10/13 02:04:44;;;;;;;6.10;2.50;;;;;;;;;;10540018;28;20056;-46
2022/10/13 02:09:53;;;;;;;5.22;2.60;;;;;;;;;;10538478;28;20107;-45
2022/10/13 02:14:55;;;;;;;6.57;2.83;;;;;;;;;;10539615;28;20028;-45
2022/10/13 02:19:56;;;;;;;4.82;2.45;;;;;;;;;;10539709;28;20030;-44
2022/10/13 02:24:56;;;;;;;4.25;2.92;;;;;;;;;;10539434;28;20024;-44
2022/10/13 02:29:56;;;;;;;3.97;2.57;;;;;;;;;;10538497;28;20036;-44
2022/10/13 02:34:57;;;;;;;4.17;2.70;;;;;;;;;;10538613;28;20035;-45
2022/10/13 02:39:57;;;;;;;3.88;2.70;;;;;;;;;;10538521;28;20024;-45
2022/10/13 02:44:57;;;;;;;4.28;2.72;;;;;;;;;;10538132;28;20043;-46
2022/10/13 02:49:57;;;;;;;9.18;2.60;;;;;;;;;;10535964;28;20112;-49
2022/10/13 02:54:58;;;;;;;2.50;2.30;;;;;;;;;;10536273;28;20028;-45
2022/10/13 02:59:58;;;;;;;4.53;2.60;;;;;;;;;;10536349;28;20027;-45
2022/10/13 03:04:58;;;;;;;2.97;2.25;;;;;;;;;;10535410;28;20044;-45
2022/10/13 03:09:59;;;;;;;3.50;2.13;;;;;;;;;;10536184;28;20432;-47
2022/10/13 03:14:59;;;;;;;3.00;2.65;;;;;;;;;;10536632;28;20463;-44
2022/10/13 03:19:59;;;;;;;4.47;2.05;;;;;;;;;;10537673;28;20501;-44
2022/10/13 03:25:00;;;;;;;6.70;2.33;;;;;;;;;;10536255;28;20453;-44
2022/10/13 03:30:00;;;;;;;3.73;2.33;;;;;;;;;;10536224;28;20380;-45
2022/10/13 03:35:01;;;;;;;3.42;2.50;;;;;;;;;;10536201;28;20123;-45
2022/10/13 03:40:01;;;;;;;3.67;2.33;;;;;;;;;;10535698;28;20070;-46
2022/10/13 03:45:04;;;;;;;3.78;2.65;;;;;;;;;;10535541;28;20032;-47
2022/10/13 03:50:05;;;;;;;5.88;2.03;;;;;;;;;;10535568;28;20024;-48
2022/10/13 03:55:05;;;;;;;3.00;2.22;;;;;;;;;;10535042;28;20471;-46
2022/10/13 04:00:09;;;;;;;5.93;2.37;;;;;;;;;;10534897;28;20115;-45
2022/10/13 04:05:09;;;;;;;4.38;2.47;;;;;;;;;;10535278;28;20032;-44
2022/10/13 04:10:10;;;;;;;5.97;2.30;;;;;;;;;;10534680;28;20032;-44
2022/10/13 04:15:10;;;;;;;2.60;2.40;;;;;;;;;;10534245;28;20032;-47
2022/10/13 04:20:10;;;;;;;2.60;2.40;;;;;;;;;;10534178;28;20055;-46
2022/10/13 04:25:11;;;;;;;2.55;2.13;;;;;;;;;;10534928;28;20590;-48
2022/10/13 04:30:11;;;;;;;2.50;2.22;;;;;;;;;;10534398;28;20070;-47
2022/10/13 04:35:11;;;;;;;2.97;1.97;;;;;;;;;;10533515;28;20068;-48
2022/10/13 04:40:12;;;;;;;2.53;2.30;;;;;;;;;;10533790;28;20630;-47
2022/10/13 04:45:12;;;;;;;5.72;2.35;;;;;;;;;;10533783;28;20036;-46
2022/10/13 04:50:12;;;;;;;3.17;2.17;;;;;;;;;;10533766;28;20016;-47
2022/10/13 04:55:12;;;;;;;4.40;2.33;;;;;;;;;;10533507;28;20102;-49
2022/10/13 05:00:13;;;;;;;2.75;2.22;;;;;;;;;;10533325;28;20123;-47
2022/10/13 05:05:13;;;;;;;3.23;2.13;;;;;;;;;;10532369;28;20498;-46
2022/10/13 05:10:13;;;;;;;2.22;2.03;;;;;;;;;;10532762;28;20036;-46
2022/10/13 05:15:14;;;;;;;2.37;2.17;;;;;;;;;;10532364;28;20149;-45
2022/10/13 05:20:15;;;;;;;2.50;2.30;;;;;;;;;;10532772;28;20068;-45
2022/10/13 05:25:15;;;;;;;6.00;2.10;;;;;;;;;;10532702;28;20025;-48
2022/10/13 05:30:16;;;;;;;2.83;1.90;;;;;;;;;;10531161;28;20510;-45
2022/10/13 05:35:16;;;;;;;2.85;2.22;;;;;;;;;;10539554;28;20047;-46
2022/10/13 05:40:16;;;;;;;26.75;4.78;;;;;;;;;;10540693;28;20058;-45
2022/10/13 05:45:18;;;;;;;17.97;4.33;;;;;;;;;;10540252;28;20430;-49
2022/10/13 05:50:18;;;;;;;9.93;4.25;;;;;;;;;;10540260;28;20024;-47
2022/10/13 05:55:18;;;;;;;10.18;4.20;;;;;;;;;;10539510;28;20089;-48
2022/10/13 06:00:19;;;;;;;11.73;4.10;;;;;;;;;;10538836;28;20178;-49
2022/10/13 06:05:22;;;;;;;14.07;4.55;;;;;;;;;;10537965;28;20043;-47
2022/10/13 06:10:22;;;;;;;11.85;3.92;;;;;;;;;;10538912;28;20498;-53
2022/10/13 06:15:22;;;;;;;12.73;3.60;;;;;;;;;;10538685;28;20055;-47
2022/10/13 06:20:23;;;;;;;12.45;3.70;;;;;;;;;;10537900;28;20061;-61
2022/10/13 06:25:23;;;;;;;14.10;3.80;;;;;;;;;;10537590;28;20073;-45
2022/10/13 06:30:23;;;;;;;7.88;3.65;;;;;;;;;;10535495;28;20052;-53
2022/10/13 06:35:24;;;;;;;7.30;3.43;;;;;;;;;;10536540;28;20460;-53
2022/10/13 06:40:24;;;;;;;6.90;3.40;;;;;;;;;;10538001;28;20032;-60
2022/10/13 06:45:24;;;;;;;7.13;3.80;;;;;;;;;;10536189;28;20028;-62
2022/10/13 06:50:25;;;;;;;9.40;3.33;;;;;;;;;;10537429;28;20125;-64
2022/10/13 06:55:25;;;;;;;7.32;3.35;;;;;;;;;;10537576;28;20032;-61
2022/10/13 07:00:25;;;;;;;6.32;3.55;;;;;;;;;;10537338;28;20391;-64
2022/10/13 07:05:26;;;;;;;8.32;3.55;;;;;;;;;;10537114;28;20034;-61
2022/10/13 07:10:26;;;;;;;11.02;3.30;;;;;;;;;;10536914;28;20028;-52
2022/10/13 07:15:27;;;;;;;9.13;3.70;;;;;;;;;;10537062;28;20039;-65
2022/10/13 07:20:27;;;;;;;13.73;4.22;;;;;;;;;;10537231;28;20058;-63
2022/10/13 07:25:28;;;;;;;10.45;4.13;;;;;;;;;;10536297;28;20115;-45
2022/10/13 07:30:28;;;;;;;8.30;4.20;;;;;;;;;;10536141;28;20040;-45
2022/10/13 07:35:28;;;;;;;8.18;3.88;;;;;;;;;;10535935;28;20027;-47
2022/10/13 07:40:29;;;;;;;12.63;4.10;;;;;;;;;;10535629;28;20024;-46
2022/10/13 07:45:30;;;;;;;6.05;3.50;;;;;;;;;;10535503;28;20028;-45
2022/10/13 07:50:30;;;;;;;7.68;3.75;;;;;;;;;;10535329;28;20032;-47
2022/10/13 07:55:30;;;;;;;10.37;4.10;;;;;;;;;;10534339;28;20031;-46
2022/10/13 08:00:31;;;;;;;8.68;4.10;;;;;;;;;;10535605;28;20020;-48
2022/10/13 08:05:31;;;;;;;10.93;3.28;;;;;;;;;;10534755;28;20074;-45
2022/10/13 08:10:31;;;;;;;7.93;3.40;;;;;;;;;;10533824;28;20036;-47
2022/10/13 08:15:31;;;;;;;9.32;4.10;;;;;;;;;;10533550;28;20530;-46
2022/10/13 08:20:33;;;;;;;8.98;3.75;;;;;;;;;;10534654;28;20348;-45
2022/10/13 08:25:37;;;;;;;5.13;3.25;;;;;;;;;;10533968;28;20036;-47
2022/10/13 08:30:38;;;;;;;8.88;3.78;;;;;;;;;;10533973;28;20044;-46
2022/10/13 08:35:38;;;;;;;8.75;3.55;;;;;;;;;;10533430;28;20042;-48
2022/10/13 08:40:39;;;;;;;8.63;3.80;;;;;;;;;;10533926;28;20019;-48
2022/10/13 08:45:40;;;;;;;7.43;3.45;;;;;;;;;;10533118;28;20054;-47
2022/10/13 08:50:43;;;;;;;5.03;3.40;;;;;;;;;;10533789;28;20103;-47
2022/10/13 08:55:46;;;;;;;5.50;3.70;;;;;;;;;;10533739;28;20194;-46
2022/10/13 09:00:46;;;;;;;8.55;3.75;;;;;;;;;;10533344;28;20032;-62
2022/10/13 09:05:58;;;;;;;6.10;2.88;;;;;;;;;;10533137;28;20111;-47
2022/10/13 09:10:59;;;;;;;8.18;3.40;;;;;;;;;;10533053;28;20020;-47
2022/10/13 09:15:59;;;;;;;10.50;3.80;;;;;;;;;;10533285;28;20380;-52
2022/10/13 09:21:19;;;;;;;6.17;3.77;;;;;;;;;;10533122;28;20458;-47
2022/10/13 09:26:21;;;;;;;7.45;3.42;;;;;;;;;;10532642;28;20062;-52
2022/10/13 09:31:26;;;;;;;7.10;2.90;;;;;;;;;;10530348;28;20496;-47
2022/10/13 09:36:27;;;;;;;9.23;3.00;;;;;;;;;;10531928;28;20529;-46
2022/10/13 09:41:27;;;;;;;5.20;3.13;;;;;;;;;;10532149;28;20106;-48
2022/10/13 09:46:33;;;;;;;7.35;3.22;;;;;;;;;;10532066;28;20031;-46
2022/10/13 09:51:38;;;;;;;7.63;3.45;;;;;;;;;;10532171;28;20024;-49
2022/10/13 09:56:45;;;;;;;9.50;3.28;;;;;;;;;;10532164;28;20486;-50
2022/10/13 10:01:46;;;;;;;4.97;3.05;;;;;;;;;;10531802;28;20095;-48
2022/10/13 10:06:46;;;;;;;6.15;3.08;;;;;;;;;;10532437;28;20082;-45
2022/10/13 10:11:49;;;;;;;4.28;3.15;;;;;;;;;;10531138;28;20560;-51
2022/10/13 10:16:54;;;;;;;7.38;3.53;;;;;;;;;;10531500;28;20024;-49
2022/10/13 10:22:07;;;;;;;4.32;3.17;;;;;;;;;;10539661;28;20077;-46
2022/10/13 10:27:20;;;;;;;6.80;3.78;;;;;;;;;;10540307;28;20028;-48
2022/10/13 10:32:32;;;;;;;4.50;3.13;;;;;;;;;;10538049;28;20109;-47
2022/10/13 10:37:48;;;;;;;6.03;3.17;;;;;;;;;;10539408;28;20166;-48
2022/10/13 10:42:52;;;;;;;6.15;3.35;;;;;;;;;;10538188;28;20103;-50
2022/10/13 10:47:55;;;;;;;3.60;3.17;;;;;;;;;;10538577;28;20024;-47
2022/10/13 10:53:05;;;;;;;6.40;3.38;;;;;;;;;;10538203;28;20038;-45
2022/10/13 10:58:08;;;;;;;6.82;3.58;;;;;;;;;;10537568;28;20158;-51
2022/10/13 11:03:08;;;;;;;6.25;3.33;;;;;;;;;;10537690;28;20032;-48
2022/10/13 11:08:24;;;;;;;5.10;3.42;;;;;;;;;;10537370;28;20137;-44
2022/10/13 11:13:25;;;;;;;5.70;3.25;;;;;;;;;;10537004;28;20028;-46
2022/10/13 11:18:44;;;;;;;5.95;3.15;;;;;;;;;;10536798;28;20028;-51
2022/10/13 11:23:46;;;;;;;7.30;3.15;;;;;;;;;;10536342;28;20051;-48
2022/10/13 11:28:46;;;;;;;3.42;2.90;;;;;;;;;;10535686;28;20044;-50
2022/10/13 11:33:50;;;;;;;6.88;2.95;;;;;;;;;;10535538;28;20031;-48
2022/10/13 11:38:53;;;;;;;4.88;3.42;;;;;;;;;;10536037;28;20479;-46
2022/10/13 11:44:05;;;;;;;3.33;2.63;;;;;;;;;;10535591;28;20024;-45
2022/10/13 11:49:11;;;;;;;3.78;2.90;;;;;;;;;;10535342;28;20035;-45
2022/10/13 11:54:20;;;;;;;6.25;3.30;;;;;;;;;;10535769;28;20088;-46
2022/10/13 11:59:20;;;;;;;5.63;3.00;;;;;;;;;;10535653;28;20206;-46
2022/10/13 12:04:22;;;;;;;5.47;3.30;;;;;;;;;;10535076;28;20357;-45
2022/10/13 12:09:23;;;;;;;7.32;3.03;;;;;;;;;;10535133;28;20020;-48
2022/10/13 12:14:30;;;;;;;6.57;2.92;;;;;;;;;;10534312;28;20517;-47
2022/10/13 12:19:30;;;;;;;4.20;3.10;;;;;;;;;;10534560;28;20468;-48
2022/10/13 12:24:31;;;;;;;4.18;3.13;;;;;;;;;;10534048;28;20032;-45
2022/10/13 12:29:31;;;;;;;6.65;3.15;;;;;;;;;;10533688;28;20066;-46
2022/10/13 12:34:34;;;;;;;8.27;3.53;;;;;;;;;;10533552;28;20093;-47
2022/10/13 12:39:35;;;;;;;5.05;3.03;;;;;;;;;;10534196;28;20112;-49
2022/10/13 12:44:35;;;;;;;6.18;3.15;;;;;;;;;;10532980;28;20103;-45
2022/10/13 12:49:36;;;;;;;6.63;3.30;;;;;;;;;;10533951;28;20036;-45
2022/10/13 12:54:37;;;;;;;4.33;2.70;;;;;;;;;;10533471;28;20506;-49
2022/10/13 12:59:40;;;;;;;4.60;3.40;;;;;;;;;;10532707;28;20127;-48
2022/10/13 13:04:41;;;;;;;7.05;3.70;;;;;;;;;;10532626;28;20024;-47
2022/10/13 13:09:42;;;;;;;8.75;3.60;;;;;;;;;;10533134;28;20262;-45
2022/10/13 13:14:48;;;;;;;8.52;3.50;;;;;;;;;;10532878;28;20255;-47
2022/10/13 13:19:49;;;;;;;7.85;3.70;;;;;;;;;;10532789;28;20032;-48
2022/10/13 13:24:50;;;;;;;7.82;3.47;;;;;;;;;;10532905;28;20059;-45
2022/10/13 13:29:51;;;;;;;6.82;3.45;;;;;;;;;;10532782;28;20523;-47
2022/10/13 13:34:51;;;;;;;7.25;3.72;;;;;;;;;;10532492;28;20032;-51
2022/10/13 13:39:52;;;;;;;7.57;3.50;;;;;;;;;;10531852;28;20487;-47
2022/10/13 13:44:52;;;;;;;8.10;3.90;;;;;;;;;;10531623;28;20035;-47
2022/10/13 13:49:54;;;;;;;6.28;3.58;;;;;;;;;;10531885;28;20030;-51
2022/10/13 13:54:55;;;;;;;5.35;3.72;;;;;;;;;;10535578;28;20458;-48
2022/10/13 13:59:55;;;;;;;4.70;3.20;;;;;;;;;;10539353;28;20111;-46
2022/10/13 14:04:55;;;;;;;7.70;4.10;;;;;;;;;;10538779;28;20024;-46
2022/10/13 14:09:55;;;;;;;6.03;3.53;;;;;;;;;;10539469;28;20027;-46
2022/10/13 14:14:57;;;;;;;9.93;3.63;;;;;;;;;;10539129;28;20024;-47
2022/10/13 14:19:57;;;;;;;8.20;4.05;;;;;;;;;;10539378;28;20031;-51
2022/10/13 14:24:57;;;;;;;12.60;3.70;;;;;;;;;;10538780;28;20038;-50
2022/10/13 14:29:58;;;;;;;18.17;4.90;;;;;;;;;;10538694;28;20044;-59
2022/10/13 14:34:58;;;;;;;7.93;3.75;;;;;;;;;;10537371;28;20514;-50
2022/10/13 14:39:58;;;;;;;40.70;5.37;;;;;;;;;;10538651;28;20028;-51
2022/10/13 14:44:59;;;;;;;29.70;5.43;;;;;;;;;;10538053;28;20380;-48
2022/10/13 14:50:00;;;;;;;27.35;4.35;;;;;;;;;;10536858;28;20039;-50
2022/10/13 14:55:01;;;;;;;26.45;4.03;;;;;;;;;;10535842;28;20241;-66
2022/10/13 15:00:01;;;;;;;14.18;4.10;;;;;;;;;;10535364;28;20585;-53
2022/10/13 15:05:01;;;;;;;10.70;3.88;;;;;;;;;;10534515;28;20600;-59
2022/10/13 15:10:02;;;;;;;17.85;3.72;;;;;;;;;;10535332;28;20386;-49
2022/10/13 15:15:02;;;;;;;11.23;3.63;;;;;;;;;;10536973;28;20035;-48
2022/10/13 15:20:03;;;;;;;7.32;3.80;;;;;;;;;;10537268;28;20038;-51
2022/10/13 15:25:08;;;;;;;8.82;3.80;;;;;;;;;;10537237;28;20060;-45
2022/10/13 15:30:09;;;;;;;10.98;4.00;;;;;;;;;;10536112;28;20051;-48
2022/10/13 15:35:09;;;;;;;8.88;3.75;;;;;;;;;;10535661;28;20040;-47
2022/10/13 15:40:09;;;;;;;7.38;3.70;;;;;;;;;;10536089;28;20028;-46
2022/10/13 15:45:10;;;;;;;6.03;3.67;;;;;;;;;;10536309;28;20028;-45
2022/10/13 15:50:10;;;;;;;5.63;3.53;;;;;;;;;;10535498;28;20527;-51
2022/10/13 15:55:11;;;;;;;12.40;3.78;;;;;;;;;;10535077;28;20180;-43
2022/10/13 16:00:12;;;;;;;4.80;3.15;;;;;;;;;;10535926;28;20041;-45
2022/10/13 16:05:12;;;;;;;6.38;3.10;;;;;;;;;;10535234;28;20028;-44
2022/10/13 16:10:13;;;;;;;4.37;3.50;;;;;;;;;;10533801;28;20024;-44
2022/10/13 16:15:13;;;;;;;6.90;3.53;;;;;;;;;;10533765;28;20032;-43
2022/10/13 16:20:14;;;;;;;6.55;3.40;;;;;;;;;;10534673;28;20028;-46
2022/10/13 16:25:14;;;;;;;5.60;3.42;;;;;;;;;;10533595;28;20160;-47
2022/10/13 16:30:14;;;;;;;8.93;3.03;;;;;;;;;;10533921;28;20068;-44
2022/10/13 16:35:15;;;;;;;6.60;3.27;;;;;;;;;;10533589;28;20500;-44
2022/10/13 16:40:15;;;;;;;7.97;3.50;;;;;;;;;;10533869;28;20027;-44
2022/10/13 16:45:15;;;;;;;6.82;3.28;;;;;;;;;;10532838;28;20448;-46
2022/10/13 16:50:16;;;;;;;3.72;3.10;;;;;;;;;;10532957;28;20387;-50
2022/10/13 16:55:16;;;;;;;7.32;3.20;;;;;;;;;;10532254;28;20499;-51
2022/10/13 17:00:16;;;;;;;14.10;3.10;;;;;;;;;;10532950;28;20032;-45
2022/10/13 17:05:17;;;;;;;5.90;3.17;;;;;;;;;;10532672;28;20039;-46
2022/10/13 17:10:17;;;;;;;9.80;3.20;;;;;;;;;;10532336;28;20439;-45
2022/10/13 17:15:17;;;;;;;9.17;3.47;;;;;;;;;;10532417;28;20032;-46
2022/10/13 17:20:18;;;;;;;5.38;3.10;;;;;;;;;;10533836;28;20489;-47
2022/10/13 17:25:18;;;;;;;9.03;3.37;;;;;;;;;;10534035;28;20386;-46
2022/10/13 17:30:18;;;;;;;5.33;3.47;;;;;;;;;;10538287;28;20468;-49
2022/10/13 17:35:18;;;;;;;10.30;3.38;;;;;;;;;;10541116;28;20095;-44
2022/10/13 17:40:19;;;;;;;5.78;3.33;;;;;;;;;;10540468;28;20364;-47
2022/10/13 17:45:19;;;;;;;12.27;4.10;;;;;;;;;;10540191;28;20060;-46
2022/10/13 17:50:19;;;;;;;5.93;4.13;;;;;;;;;;10538841;28;20390;-46
2022/10/13 17:55:20;;;;;;;7.23;3.80;;;;;;;;;;10538473;28;20020;-46
2022/10/13 18:00:20;;;;;;;8.70;4.05;;;;;;;;;;10539098;28;20111;-45
2022/10/13 18:05:20;;;;;;;14.70;4.10;;;;;;;;;;10539480;28;20374;-47
2022/10/13 18:10:21;;;;;;;11.53;4.43;;;;;;;;;;10539902;28;20062;-45
2022/10/13 18:15:21;;;;;;;9.88;4.25;;;;;;;;;;10540071;28;20483;-44
2022/10/13 18:20:21;;;;;;;11.73;3.90;;;;;;;;;;10537534;28;20028;-45
2022/10/13 18:25:21;;;;;;;11.80;4.05;;;;;;;;;;10539464;28;20118;-45
2022/10/13 18:30:22;;;;;;;6.70;3.37;;;;;;;;;;10539682;28;20045;-45
2022/10/13 18:35:22;;;;;;;25.45;3.92;;;;;;;;;;10538885;28;20468;-45
2022/10/13 18:40:23;;;;;;;9.20;4.13;;;;;;;;;;10538652;28;20188;-50
2022/10/13 18:45:23;;;;;;;9.20;3.63;;;;;;;;;;10538671;28;20081;-45
2022/10/13 18:50:24;;;;;;;7.60;3.63;;;;;;;;;;10539338;28;20490;-46
2022/10/13 18:55:24;;;;;;;7.30;3.47;;;;;;;;;;10536927;28;20027;-50
2022/10/13 19:00:24;;;;;;;6.88;4.10;;;;;;;;;;10538055;28;20357;-46
2022/10/13 19:05:24;;;;;;;8.50;4.07;;;;;;;;;;10537998;28;20374;-45
2022/10/13 19:10:25;;;;;;;8.20;3.50;;;;;;;;;;10538156;28;20032;-45
2022/10/13 19:15:25;;;;;;;12.45;4.35;;;;;;;;;;10537418;28;20032;-44
2022/10/13 19:20:25;;;;;;;14.63;3.53;;;;;;;;;;10537786;28;20027;-46
2022/10/13 19:25:25;;;;;;;5.20;3.58;;;;;;;;;;10537071;28;20107;-45
2022/10/13 19:30:26;;;;;;;7.50;3.80;;;;;;;;;;10536989;28;20044;-45
2022/10/13 19:35:26;;;;;;;7.85;4.13;;;;;;;;;;10537198;28;20055;-47
2022/10/13 19:40:26;;;;;;;6.35;4.18;;;;;;;;;;10536500;28;20024;-45
2022/10/13 19:45:26;;;;;;;11.07;4.20;;;;;;;;;;10536232;28;20028;-45
2022/10/13 19:50:27;;;;;;;7.17;4.03;;;;;;;;;;10536014;28;20165;-47
2022/10/13 19:55:27;;;;;;;7.88;3.65;;;;;;;;;;10535758;28;20115;-47
2022/10/13 20:00:27;;;;;;;6.78;3.83;;;;;;;;;;10535894;28;20028;-46
2022/10/13 20:05:28;;;;;;;6.50;3.60;;;;;;;;;;10535585;28;20149;-46
2022/10/13 20:10:28;;;;;;;7.13;3.53;;;;;;;;;;10536000;28;20034;-45
2022/10/13 20:15:28;;;;;;;7.88;4.40;;;;;;;;;;10535013;28;20395;-45
2022/10/13 20:20:29;;;;;;;5.95;3.65;;;;;;;;;;10535026;28;20024;-49
2022/10/13 20:25:29;;;;;;;13.55;4.38;;;;;;;;;;10535022;28;20107;-46
2022/10/13 20:30:29;;;;;;;7.57;3.88;;;;;;;;;;10533304;28;20040;-48
2022/10/13 20:35:37;;;;;;;9.75;4.35;;;;;;;;;;10533084;28;20047;-45
2022/10/13 20:40:37;;;;;;;9.27;3.93;;;;;;;;;;10534807;28;20028;-45
2022/10/13 20:45:38;;;;;;;8.63;4.10;;;;;;;;;;10534444;28;20462;-47
2022/10/13 20:50:38;;;;;;;5.82;3.42;;;;;;;;;;10533913;28;20057;-45
2022/10/13 20:55:38;;;;;;;10.48;4.35;;;;;;;;;;10533705;28;20032;-45
2022/10/13 21:00:41;;;;;;;8.68;4.05;;;;;;;;;;10534242;28;20032;-45
2022/10/13 21:05:41;;;;;;;6.97;3.67;;;;;;;;;;10532390;28;20024;-47
2022/10/13 21:10:43;;;;;;;9.32;4.18;;;;;;;;;;10533156;28;20046;-44
2022/10/13 21:15:44;;;;;;;12.70;4.28;;;;;;;;;;10532719;28;20379;-50
2022/10/13 21:20:44;;;;;;;5.53;3.72;;;;;;;;;;10533731;28;20032;-46
2022/10/13 21:25:44;;;;;;;8.50;4.10;;;;;;;;;;10532866;28;20255;-47
2022/10/13 21:30:45;;;;;;;11.85;4.90;;;;;;;;;;10532499;28;20138;-46
2022/10/13 21:35:45;;;;;;;9.25;4.13;;;;;;;;;;10532633;28;20024;-45
2022/10/13 21:40:45;;;;;;;11.82;5.28;;;;;;;;;;10531255;28;20107;-44
2022/10/13 21:45:45;;;;;;;19.23;8.55;;;;;;;;;;10531139;28;20043;-46
2022/10/13 21:50:46;;;;;;;15.68;10.23;;;;;;;;;;10532536;28;20107;-46
2022/10/13 21:55:46;;;;;;;17.33;11.50;;;;;;;;;;10533510;28;20028;-44
2022/10/13 22:00:46;;;;;;;19.83;11.23;;;;;;;;;;10532516;28;20448;-46
2022/10/13 22:05:46;;;;;;;20.15;11.00;;;;;;;;;;10532504;28;20039;-44
2022/10/13 22:10:47;;;;;;;24.98;11.23;;;;;;;;;;10532213;28;20054;-45
2022/10/13 22:15:47;;;;;;;23.70;11.70;;;;;;;;;;10536586;28;20093;-43
2022/10/13 22:20:47;;;;;;;25.45;11.95;;;;;;;;;;10539582;28;20459;-43
2022/10/13 22:25:48;;;;;;;19.08;11.30;;;;;;;;;;10540381;28;20274;-44
2022/10/13 22:30:49;;;;;;;16.15;10.93;;;;;;;;;;10538569;28;20119;-43
2022/10/13 22:35:49;;;;;;;16.23;11.55;;;;;;;;;;10538936;28;20056;-43
2022/10/13 22:40:49;;;;;;;20.92;10.95;;;;;;;;;;10538613;28;20065;-44
2022/10/13 22:45:50;;;;;;;17.92;10.27;;;;;;;;;;10538324;28;20053;-44
2022/10/13 22:50:51;;;;;;;18.55;9.77;;;;;;;;;;10538040;28;20035;-44
2022/10/13 22:55:51;;;;;;;25.00;9.63;;;;;;;;;;10537904;28;20024;-45
2022/10/13 23:00:51;;;;;;;20.50;9.97;;;;;;;;;;10537734;28;20107;-44
2022/10/13 23:05:52;;;;;;;10.30;8.20;;;;;;;;;;10538448;28;20472;-47
2022/10/13 23:10:52;;;;;;;14.32;9.52;;;;;;;;;;10537690;28;20039;-44
2022/10/13 23:15:52;;;;;;;16.70;8.40;;;;;;;;;;10536625;28;20156;-46
2022/10/13 23:20:52;;;;;;;16.48;8.00;;;;;;;;;;10536599;28;20028;-47
2022/10/13 23:25:53;;;;;;;14.13;7.47;;;;;;;;;;10535588;28;20027;-46
2022/10/13 23:30:53;;;;;;;17.20;7.95;;;;;;;;;;10536688;28;20051;-45
2022/10/13 23:35:54;;;;;;;14.77;7.35;;;;;;;;;;10536589;28;20411;-44
2022/10/13 23:40:54;;;;;;;10.85;7.03;;;;;;;;;;10537060;28;20032;-45
2022/10/13 23:45:55;;;;;;;16.83;6.90;;;;;;;;;;10536869;28;20103;-45
2022/10/13 23:50:55;;;;;;;12.30;6.88;;;;;;;;;;10536646;28;20396;-45
2022/10/13 23:55:55;;;;;;;10.43;6.53;;;;;;;;;;10535494;28;20031;-44
